Data for 01/21/2016

Time Sea-Level Adjusted Pressure Absolute Pressure Temperature Relative Humidity Dew Point   
(mb) (inHg) (mb) (inHg) (C) (F) (%) (C) (F)
00:05 1024 30.24 854 25.22 -0.8 30.6 64 -6.7 19.9
00:10 1024 30.24 854 25.22 -0.6 30.8 65 -6.5 20.4
00:15 1024 30.24 854 25.22 -0.7 30.7 66 -6.4 20.5
00:20 1024 30.24 854 25.22 -0.7 30.7 66 -6.4 20.5
00:25 1024 30.24 854 25.22 -0.7 30.7 64 -6.8 19.7
00:30 1025 30.27 854 25.22 -0.4 31.2 61 -7 19.5
00:35 1025 30.27 854 25.22 -0.2 31.6 62 -6.7 19.9
00:40 1025 30.27 854 25.22 -0.1 31.8 61 -6.8 19.8
00:45 1025 30.27 854 25.22 -0.2 31.7 64 -6.2 20.8
00:50 1025 30.27 854 25.22 -0.3 31.4 59 -7.5 18.5
00:55 1025 30.27 854 25.22 -0.1 31.8 61 -6.7 20
01:00 1025 30.27 854 25.22 -0.1 31.7 59 -7.2 19.1
01:05 1025 30.27 854 25.22 -0.2 31.6 59 -7.3 18.9
01:10 1025 30.27 854 25.22 -0.1 31.8 59 -7.1 19.3
01:15 1025 30.27 854 25.22 -0.1 31.8 59 -7.1 19.3
01:20 1025 30.27 854 25.22 -0.2 31.6 59 -7.3 18.8
01:25 1025 30.27 854 25.22 -0.3 31.5 60 -7.2 19.1
01:30 1025 30.27 854 25.22 -0.3 31.4 60 -7.2 19.1
01:35 1025 30.27 854 25.22 -0.4 31.3 58 -7.7 18.2
01:40 1025 30.27 854 25.22 -0.5 31.1 59 -7.5 18.4
01:45 1025 30.27 854 25.22 -0.6 31 56 -8.4 17
01:50 1025 30.27 854 25.22 -0.6 30.9 56 -8.3 17.1
01:55 1025 30.27 854 25.22 -0.7 30.8 57 -8.1 17.4
02:00 1025 30.27 854 25.22 -0.9 30.4 57 -8.4 16.9
02:05 1025 30.27 854 25.22 -1 30.2 57 -8.5 16.7
02:10 1025 30.27 854 25.22 -1 30.2 57 -8.6 16.6
02:15 1025 30.27 854 25.22 -1.1 30 56 -8.8 16.2
02:20 1025 30.27 854 25.22 -1.1 30 56 -8.8 16.2
02:25 1025 30.27 854 25.22 -1.1 30.1 55 -8.9 16
02:30 1025 30.27 854 25.22 -1.1 30 56 -8.8 16.2
02:35 1025 30.27 854 25.22 -1.2 29.9 57 -8.6 16.6
02:40 1025 30.27 854 25.22 -1.2 29.8 58 -8.5 16.7
02:45 1025 30.27 854 25.22 -1.3 29.7 58 -8.5 16.8
02:50 1025 30.27 854 25.22 -1.3 29.6 58 -8.5 16.7
02:55 1025 30.27 854 25.22 -1.4 29.5 58 -8.6 16.6
03:00 1025 30.27 854 25.22 -1.5 29.2 59 -8.6 16.6
03:05 1025 30.27 854 25.22 -1.6 29 60 -8.5 16.7
03:10 1025 30.27 854 25.22 -1.8 28.8 59 -8.8 16.2
03:15 1025 30.27 854 25.22 -1.8 28.8 60 -8.7 16.4
03:20 1025 30.27 854 25.22 -1.9 28.5 62 -8.3 17
03:25 1025 30.27 854 25.22 -2.1 28.2 62 -8.4 16.8
03:30 1025 30.27 854 25.22 -2.3 27.9 63 -8.4 16.9
03:35 1025 30.27 854 25.22 -2.4 27.7 63 -8.6 16.6
03:40 1025 30.27 854 25.22 -2.5 27.5 64 -8.3 17
03:45 1025 30.27 854 25.22 -2.9 26.7 68 -8.1 17.4
03:50 1025 30.27 854 25.22 -3.4 25.9 69 -8.3 17
03:55 1025 30.27 854 25.22 -3.6 25.5 70 -8.4 17
04:00 1025 30.27 854 25.22 -3.5 25.7 69 -8.4 16.9
04:05 1025 30.27 854 25.22 -3.5 25.7 69 -8.4 16.8
04:10 1025 30.27 854 25.22 -3.5 25.8 68 -8.6 16.5
04:15 1025 30.27 854 25.22 -3.2 26.2 67 -8.5 16.7
04:20 1025 30.27 854 25.22 -3.1 26.5 66 -8.7 16.4
04:25 1025 30.27 854 25.22 -3.3 26.1 68 -8.4 16.9
04:30 1025 30.27 854 25.22 -3.6 25.6 69 -8.5 16.7
04:35 1025 30.27 854 25.22 -3.9 25 70 -8.6 16.4
04:40 1025 30.27 854 25.22 -4.2 24.4 72 -8.6 16.5
04:45 1025 30.27 854 25.22 -4.9 23.3 73 -9 15.8
04:50 1025 30.27 854 25.22 -4.9 23.2 72 -9.2 15.4
04:55 1025 30.27 854 25.22 -4.6 23.8 70 -9.2 15.5
05:00 1025 30.27 854 25.22 -4.7 23.6 71 -9.2 15.4
05:05 1025 30.27 854 25.22 -4.7 23.5 72 -9.1 15.6
05:10 1025 30.27 854 25.22 -4.8 23.3 71 -9.3 15.2
05:15 1025 30.27 854 25.22 -4.5 23.8 69 -9.4 15.1
05:20 1025 30.27 854 25.22 -4.4 24.1 69 -9.2 15.5
05:25 1025 30.27 854 25.22 -5.1 22.7 72 -9.5 14.9
05:30 1025 30.27 854 25.22 -5.4 22.3 72 -9.7 14.5
05:35 1025 30.27 854 25.22 -5.2 22.7 71 -9.6 14.7
05:40 1025 30.27 854 25.22 -5.3 22.4 72 -9.7 14.6
05:45 1025 30.27 854 25.22 -5.5 22.1 72 -9.8 14.4
05:50 1025 30.27 854 25.22 -5.5 22.1 72 -9.8 14.4
05:55 1025 30.27 855 25.25 -5.6 22 72 -9.8 14.3
06:00 1025 30.27 855 25.25 -5.8 21.5 73 -9.8 14.3
06:05 1025 30.27 854 25.22 -6 21.2 74 -10 14
06:10 1025 30.27 854 25.22 -5.9 21.3 73 -10 14
06:15 1025 30.27 854 25.22 -5.9 21.5 73 -10 14
06:20 1025 30.27 854 25.22 -5.7 21.7 72 -10 13.9
06:25 1025 30.27 854 25.22 -5.7 21.8 72 -10 14
06:30 1025 30.27 854 25.22 -5.4 22.3 70 -10 14
06:35 1025 30.27 854 25.22 -5.4 22.3 70 -9.9 14.1
06:40 1025 30.27 854 25.22 -5.4 22.2 71 -9.9 14.1
06:45 1025 30.27 854 25.22 -5.4 22.2 70 -10 14
06:50 1025 30.27 854 25.22 -5.4 22.4 70 -10 14
06:55 1025 30.27 854 25.22 -5.1 22.7 69 -10 14
07:00 1025 30.27 854 25.22 -5.1 22.8 69 -9.9 14.1
07:05 1025 30.27 854 25.22 -5.2 22.6 70 -9.9 14.2
07:10 1025 30.27 855 25.25 -5.3 22.4 70 -9.9 14.2
07:15 1025 30.27 854 25.22 -5.3 22.5 70 -10 14.1
07:20 1025 30.27 854 25.22 -5.1 22.8 69 -10 14
07:25 1025 30.27 854 25.22 -5 23 69 -9.9 14.2
07:30 1025 30.27 854 25.22 -5 23 69 -9.9 14.2
07:35 1025 30.27 854 25.22 -5 22.9 68 -10.1 13.9
07:40 1025 30.27 855 25.25 -4.9 23.1 68 -10 13.9
07:45 1025 30.27 855 25.25 -4.8 23.3 67 -10 13.9
07:50 1025 30.27 854 25.22 -4.8 23.3 68 -9.8 14.3
07:55 1025 30.27 854 25.22 -4.7 23.6 67 -9.9 14.1
08:00 1025 30.27 854 25.22 -4.4 24 66 -9.8 14.4
08:05 1025 30.27 855 25.25 -4.4 24.2 66 -9.7 14.5
08:10 1025 30.27 854 25.22 -4.3 24.3 66 -9.8 14.4
08:15 1025 30.27 854 25.22 -4.3 24.3 67 -9.6 14.8
08:20 1025 30.27 854 25.22 -4.5 23.8 67 -9.8 14.4
08:25 1025 30.27 854 25.22 -4.5 23.9 66 -9.8 14.3
08:30 1025 30.27 855 25.25 -4.5 23.8 68 -9.6 14.7
08:35 1025 30.27 855 25.25 -4.4 24.1 67 -9.7 14.6
08:40 1025 30.27 855 25.25 -4.2 24.5 67 -9.4 15
08:45 1025 30.27 855 25.25 -4.2 24.5 68 -9.3 15.3
08:50 1025 30.27 855 25.25 -4.1 24.6 67 -9.4 15.1
08:55 1025 30.27 855 25.25 -4 24.9 66 -9.4 15
09:00 1025 30.27 855 25.25 -3.9 25 65 -9.5 14.9
09:05 1025 30.27 855 25.25 -4.1 24.7 66 -9.5 14.9
09:10 1025 30.27 855 25.25 -4.1 24.5 66 -9.6 14.7
09:15 1025 30.27 854 25.22 -3.9 24.9 66 -9.3 15.2
09:20 1025 30.27 854 25.22 -3.7 25.3 67 -9 15.8
09:25 1025 30.27 854 25.22 -3.8 25.2 67 -9 15.8
09:30 1025 30.27 854 25.22 -3.8 25.2 68 -8.8 16.1
09:35 1025 30.27 854 25.22 -3.7 25.3 69 -8.7 16.4
09:40 1025 30.27 854 25.22 -3.7 25.4 68 -8.8 16.2
09:45 1025 30.27 854 25.22 -3.5 25.7 67 -8.7 16.4
09:50 1025 30.27 854 25.22 -3.4 25.9 68 -8.5 16.6
09:55 1025 30.27 854 25.22 -3.3 26 67 -8.5 16.7
10:00 1025 30.27 854 25.22 -3.1 26.3 67 -8.3 17
10:05 1025 30.27 854 25.22 -3 26.6 68 -8.1 17.4
10:10 1025 30.27 854 25.22 -3 26.6 68 -8 17.5
10:15 1025 30.27 854 25.22 -3 26.6 69 -7.9 17.8
10:20 1025 30.27 854 25.22 -3 26.7 68 -8.1 17.5
10:25 1025 30.27 854 25.22 -2.8 26.9 67 -8 17.5
10:30 1025 30.27 854 25.22 -2.5 27.4 67 -7.8 18
10:35 1025 30.27 854 25.22 -2.5 27.6 68 -7.5 18.5
10:40 1025 30.27 854 25.22 -2.4 27.7 69 -7.3 18.9
10:45 1025 30.27 854 25.22 -2.2 28 70 -7.1 19.3
10:50 1025 30.27 855 25.25 -1.9 28.5 69 -6.9 19.6
10:55 1025 30.27 854 25.22 -1.8 28.8 69 -6.7 19.9
11:00 1025 30.27 854 25.22 -1.6 29 68 -6.8 19.7
11:05 1025 30.27 854 25.22 -1.4 29.5 69 -6.4 20.5
11:10 1025 30.27 854 25.22 -1.3 29.7 69 -6.3 20.6
11:15 1025 30.27 854 25.22 -1.3 29.7 69 -6.2 20.8
11:20 1025 30.27 854 25.22 -1.2 29.9 69 -6.1 21.1
11:25 1025 30.27 854 25.22 -1 30.2 69 -5.9 21.3
11:30 1025 30.27 854 25.22 -0.8 30.5 70 -5.7 21.7
11:35 1025 30.27 854 25.22 -0.6 30.9 69 -5.6 21.9
11:40 1025 30.27 854 25.22 -0.4 31.4 69 -5.4 22.3
11:45 1025 30.27 854 25.22 -0.1 31.8 67 -5.5 22
11:50 1025 30.27 854 25.22 0 32.1 67 -5.4 22.4
11:55 1025 30.27 854 25.22 0.1 32.1 66 -5.5 22.1
12:00 1025 30.27 854 25.22 0.3 32.6 65 -5.6 22
12:05 1025 30.27 854 25.22 0.5 33 64 -5.4 22.2
12:10 1025 30.27 854 25.22 0.8 33.4 64 -5.3 22.5
12:15 1025 30.27 854 25.22 0.7 33.3 64 -5.4 22.3
12:20 1025 30.27 854 25.22 0.7 33.3 63 -5.4 22.2
12:25 1025 30.27 854 25.22 1.1 34 62 -5.3 22.4
12:30 1025 30.27 854 25.22 1.4 34.6 61 -5.4 22.4
12:35 1025 30.27 854 25.22 1.9 35.3 60 -5.1 22.8
12:40 1025 30.27 854 25.22 1.7 35.1 60 -5.2 22.6
12:45 1025 30.27 854 25.22 1.6 34.9 61 -5.2 22.7
12:50 1025 30.27 854 25.22 1.6 34.9 60 -5.3 22.5
12:55 1025 30.27 854 25.22 1.9 35.4 59 -5.3 22.5
13:00 1025 30.27 854 25.22 2.4 36.4 58 -5 23.1
13:05 1025 30.27 854 25.22 2.9 37.2 55 -5.2 22.7
13:10 1025 30.27 854 25.22 3.4 38.1 55 -4.9 23.2
13:15 1025 30.27 854 25.22 3.5 38.2 56 -4.5 23.9
13:20 1024 30.24 854 25.22 3 37.4 59 -4.3 24.3
13:25 1024 30.24 854 25.22 2.6 36.6 60 -4.3 24.2
13:30 1025 30.27 854 25.22 2.3 36.1 59 -4.9 23.3
13:35 1024 30.24 854 25.22 2.4 36.3 61 -4.3 24.2
13:40 1024 30.24 854 25.22 2.1 35.8 61 -4.6 23.7
13:45 1024 30.24 853 25.19 1.9 35.5 61 -4.7 23.5
13:50 1024 30.24 853 25.19 1.1 33.9 67 -4.5 23.9
13:55 1024 30.24 853 25.19 0.5 32.9 66 -5.1 22.7
14:00 1024 30.24 853 25.19 0.2 32.3 66 -5.4 22.3
14:05 1024 30.24 853 25.19 0.6 33.1 63 -5.6 22
14:10 1024 30.24 853 25.19 0.5 32.9 65 -5.4 22.2
14:15 1024 30.24 853 25.19 0.5 32.9 65 -5.4 22.3
14:20 1024 30.24 853 25.19 1 33.8 62 -5.4 22.2
14:25 1024 30.24 853 25.19 0.7 33.2 65 -5.2 22.7
14:30 1024 30.24 853 25.19 0.5 32.8 64 -5.6 21.9
14:35 1024 30.24 853 25.19 0.5 32.9 62 -5.9 21.4
14:40 1023 30.21 853 25.19 0.9 33.5 64 -5.2 22.6
14:45 1023 30.21 853 25.19 0.7 33.2 62 -5.7 21.7
14:50 1023 30.21 853 25.19 1.3 34.3 60 -5.6 21.9
14:55 1024 30.24 853 25.19 1.4 34.4 61 -5.5 22.2
15:00 1024 30.24 853 25.19 1.3 34.4 63 -5.1 22.9
15:05 1024 30.24 853 25.19 1.6 34.8 59 -5.6 22
15:10 1023 30.21 853 25.19 2.4 36.2 58 -5 23
15:15 1023 30.21 853 25.19 2.6 36.8 56 -5.2 22.6
15:20 1023 30.21 853 25.19 2.7 36.9 54 -5.6 21.9
15:25 1023 30.21 853 25.19 3 37.5 54 -5.3 22.4
15:30 1023 30.21 853 25.19 3.2 37.7 55 -5 22.9
15:35 1023 30.21 853 25.19 2.6 36.7 59 -4.7 23.5
15:40 1023 30.21 853 25.19 2.5 36.6 56 -5.4 22.2
15:45 1023 30.21 853 25.19 2.2 35.9 57 -5.4 22.4
15:50 1023 30.21 853 25.19 2.1 35.7 58 -5.3 22.4
15:55 1024 30.24 853 25.19 2.5 36.4 56 -5.5 22.1
16:00 1024 30.24 853 25.19 3 37.3 55 -5.1 22.8
16:05 1024 30.24 853 25.19 2.8 37.1 56 -5.2 22.7
16:10 1024 30.24 853 25.19 2.5 36.5 58 -5 23
16:15 1024 30.24 853 25.19 2.5 36.5 56 -5.4 22.2
16:20 1024 30.24 853 25.19 2.4 36.4 56 -5.4 22.3
16:25 1024 30.24 853 25.19 2.5 36.5 58 -5 23
16:30 1024 30.24 853 25.19 2.3 36.1 57 -5.3 22.5
16:35 1024 30.24 853 25.19 2.3 36.2 58 -5.2 22.7
16:40 1024 30.24 853 25.19 2.3 36.1 59 -5 22.9
16:45 1024 30.24 853 25.19 2.2 36 58 -5.1 22.8
16:50 1023 30.21 853 25.19 2.2 36 59 -4.9 23.2
16:55 1023 30.21 853 25.19 2.2 36 60 -4.7 23.5
17:00 1023 30.21 853 25.19 2.4 36.2 60 -4.6 23.6
17:05 1023 30.21 853 25.19 2.2 36 59 -4.9 23.2
17:10 1023 30.21 853 25.19 2.2 36 60 -4.8 23.3
17:15 1023 30.21 853 25.19 2.3 36.1 60 -4.7 23.6
17:20 1023 30.21 853 25.19 2.4 36.2 59 -4.9 23.3
17:25 1023 30.21 853 25.19 2.5 36.5 59 -4.8 23.4
17:30 1023 30.21 853 25.19 2.1 35.8 62 -4.5 23.9
17:35 1023 30.21 853 25.19 2 35.7 62 -4.5 23.9
17:40 1023 30.21 853 25.19 2.2 35.9 62 -4.4 24.2
17:45 1023 30.21 853 25.19 2.1 35.9 62 -4.4 24
17:50 1024 30.24 853 25.19 2.1 35.8 62 -4.3 24.3
17:55 1024 30.24 853 25.19 2 35.7 64 -4.1 24.6
18:00 1024 30.24 853 25.19 1.8 35.2 65 -4 24.7
18:05 1024 30.24 853 25.19 1.4 34.5 66 -4.3 24.2
18:10 1024 30.24 853 25.19 1.2 34.2 67 -4.2 24.4
18:15 1023 30.21 853 25.19 1.2 34.1 66 -4.4 24.1
18:20 1023 30.21 853 25.19 1.2 34.1 65 -4.7 23.6
18:25 1024 30.24 853 25.19 1.3 34.3 66 -4.4 24.1
18:30 1024 30.24 853 25.19 1.3 34.4 65 -4.5 24
18:35 1024 30.24 853 25.19 1.5 34.7 62 -5 23
18:40 1024 30.24 853 25.19 1.5 34.6 64 -4.6 23.8
18:45 1024 30.24 853 25.19 1.4 34.6 63 -4.9 23.3
18:50 1023 30.21 853 25.19 1.4 34.5 65 -4.4 24.1
18:55 1023 30.21 853 25.19 1.2 34.2 66 -4.4 24.1
19:00 1024 30.24 853 25.19 1.2 34.1 67 -4.2 24.4
19:05 1024 30.24 853 25.19 1.2 34.1 65 -4.7 23.6
19:10 1024 30.24 853 25.19 1.7 35.1 64 -4.4 24.1
19:15 1024 30.24 853 25.19 1.9 35.3 64 -4.2 24.5
19:20 1024 30.24 853 25.19 1.8 35.3 65 -4.1 24.7
19:25 1024 30.24 853 25.19 1.8 35.2 65 -4 24.8
19:30 1024 30.24 853 25.19 1.9 35.4 65 -3.9 24.9
19:35 1024 30.24 853 25.19 1.9 35.5 65 -3.9 25
19:40 1024 30.24 853 25.19 2 35.7 65 -3.9 25.1
19:45 1024 30.24 853 25.19 2.1 35.7 65 -3.8 25.2
19:50 1024 30.24 853 25.19 2 35.6 66 -3.7 25.4
19:55 1024 30.24 853 25.19 1.9 35.4 67 -3.7 25.4
20:00 1024 30.24 853 25.19 1.9 35.5 66 -3.7 25.4
20:05 1024 30.24 853 25.19 2 35.6 67 -3.5 25.8
20:10 1024 30.24 853 25.19 2.1 35.8 65 -3.8 25.2
20:15 1024 30.24 853 25.19 2.3 36.1 65 -3.7 25.3
20:20 1024 30.24 853 25.19 2.4 36.2 65 -3.5 25.6
20:25 1024 30.24 853 25.19 2.3 36.1 65 -3.6 25.6
20:30 1024 30.24 853 25.19 2.1 35.8 68 -3.1 26.4
20:35 1024 30.24 853 25.19 1.7 35 71 -3.1 26.4
20:40 1024 30.24 853 25.19 1.4 34.5 71 -3.3 26
20:45 1024 30.24 853 25.19 1.6 34.8 69 -3.6 25.6
20:50 1023 30.21 853 25.19 1.7 35 68 -3.5 25.7
20:55 1023 30.21 853 25.19 1.6 34.8 71 -3.2 26.3
21:00 1023 30.21 853 25.19 1.8 35.2 68 -3.5 25.7
21:05 1023 30.21 853 25.19 1.4 34.5 71 -3.3 26.1
21:10 1023 30.21 852 25.16 1.6 34.9 70 -3.2 26.2
21:15 1023 30.21 852 25.16 1.8 35.2 69 -3.3 26
21:20 1023 30.21 852 25.16 1.8 35.2 69 -3.3 26
21:25 1023 30.21 852 25.16 1.7 35 72 -2.8 27
21:30 1023 30.21 853 25.19 1.7 35.1 72 -2.7 27.1
21:35 1023 30.21 852 25.16 1.5 34.6 73 -2.8 26.9
21:40 1023 30.21 852 25.16 1.3 34.3 72 -3.2 26.2
21:45 1023 30.21 852 25.16 1.4 34.5 72 -3.2 26.3
21:50 1023 30.21 852 25.16 1.4 34.4 70 -3.6 25.6
21:55 1023 30.21 852 25.16 1.6 34.9 61 -5 22.9
22:00 1023 30.21 852 25.16 1.9 35.4 67 -3.6 25.4
22:05 1023 30.21 852 25.16 1.5 34.7 72 -2.9 26.7
22:10 1023 30.21 852 25.16 0.7 33.2 76 -3 26.6
22:15 1023 30.21 852 25.16 0.3 32.6 77 -3.2 26.2
22:20 1023 30.21 852 25.16 0.6 33.1 75 -3.3 26
22:25 1023 30.21 852 25.16 1 33.8 70 -4 24.9
22:30 1023 30.21 852 25.16 1 33.8 73 -3.3 26.1
22:35 1023 30.21 852 25.16 0.9 33.7 75 -3 26.5
22:40 1023 30.21 852 25.16 1 33.7 75 -3 26.6
22:45 1023 30.21 852 25.16 0.6 33.1 75 -3.4 25.9
22:50 1023 30.21 852 25.16 0.1 32.1 76 -3.6 25.4
22:55 1023 30.21 852 25.16 -0.3 31.5 77 -3.8 25.1
23:00 1023 30.21 852 25.16 -0.3 31.5 79 -3.4 25.8
23:05 1023 30.21 852 25.16 -0.2 31.6 79 -3.4 25.8
23:10 1023 30.21 852 25.16 0.1 32.3 78 -3.3 26
23:15 1023 30.21 852 25.16 0.5 32.9 75 -3.3 26
23:20 1023 30.21 852 25.16 0.6 33.1 75 -3.4 25.9
23:25 1023 30.21 852 25.16 0.6 33.2 71 -4 24.9
23:30 1023 30.21 852 25.16 1.5 34.6 67 -4 24.8
23:35 1023 30.21 852 25.16 1.7 35.1 65 -4.1 24.7
23:40 1023 30.21 852 25.16 1.4 34.6 71 -3.2 26.3
23:45 1023 30.21 852 25.16 0 32 74 -4.1 24.5
23:50 1023 30.21 852 25.16 0.7 33.3 70 -4.1 24.7
23:55 1023 30.21 852 25.16 1.4 34.4 67 -4.1 24.6
24:00 1023 30.21 852 25.16 1.8 35.2 65 -4.1 24.6